createdAt,value
2022-09-02T00:00:52.124Z,2.97
2022-09-02T00:03:19.899Z,3.17
2022-09-02T00:05:48.086Z,3.53
2022-09-02T00:08:15.337Z,3.40
2022-09-02T00:10:46.199Z,3.10
2022-09-02T00:13:15.131Z,3.47
2022-09-02T00:15:43.101Z,3.05
2022-09-02T00:18:15.199Z,3.13
2022-09-02T00:20:43.778Z,2.75
2022-09-02T00:23:11.273Z,3.42
2022-09-02T00:25:39.154Z,3.00
2022-09-02T00:28:06.905Z,2.97
2022-09-02T00:30:35.601Z,4.10
2022-09-02T00:33:02.902Z,2.95
2022-09-02T00:35:30.261Z,2.72
2022-09-02T00:37:57.455Z,2.55
2022-09-02T00:40:24.794Z,2.72
2022-09-02T00:42:52.499Z,2.83
2022-09-02T00:45:20.264Z,2.70
2022-09-02T00:47:50.253Z,2.70
2022-09-02T00:50:18.622Z,2.60
2022-09-02T00:52:51.788Z,2.75
2022-09-02T00:55:20.151Z,2.90
2022-09-02T00:57:49.314Z,2.67
2022-09-02T01:00:18.695Z,2.83
2022-09-02T01:02:50.227Z,2.55
2022-09-02T01:05:18.450Z,2.78
2022-09-02T01:07:46.033Z,2.78
2022-09-02T01:10:15.808Z,2.55
2022-09-02T01:12:43.329Z,2.65
2022-09-02T01:15:12.657Z,2.80
2022-09-02T01:17:42.538Z,2.45
2022-09-02T01:20:12.159Z,2.40
2022-09-02T01:22:41.675Z,2.78
2022-09-02T01:25:14.040Z,2.55
2022-09-02T01:27:41.558Z,2.63
2022-09-02T01:30:10.135Z,2.33
2022-09-02T01:32:37.593Z,2.40
2022-09-02T01:35:05.082Z,2.70
2022-09-02T01:37:32.462Z,2.47
2022-09-02T01:40:00.240Z,2.63
2022-09-02T01:42:27.534Z,2.67
2022-09-02T01:44:54.752Z,2.85
2022-09-02T01:47:26.946Z,2.78
2022-09-02T01:49:54.439Z,2.65
2022-09-02T01:52:23.166Z,2.60
2022-09-02T01:54:50.493Z,2.78
2022-09-02T01:57:17.974Z,2.97
2022-09-02T01:59:46.183Z,2.72
2022-09-02T02:02:14.627Z,2.40
2022-09-02T02:04:41.869Z,3.00
2022-09-02T02:07:09.145Z,2.60
2022-09-02T02:09:36.338Z,2.58
2022-09-02T02:12:03.623Z,2.70
2022-09-02T02:14:31.027Z,3.00
2022-09-02T02:16:58.223Z,2.75
2022-09-02T02:19:25.435Z,2.97
2022-09-02T02:21:52.774Z,2.63
2022-09-02T02:24:20.014Z,2.80
2022-09-02T02:26:47.712Z,2.58
2022-09-02T02:29:14.911Z,2.67
2022-09-02T02:31:42.349Z,2.85
2022-09-02T02:34:10.522Z,2.78
2022-09-02T02:36:38.143Z,2.65
2022-09-02T02:39:06.925Z,2.55
2022-09-02T02:41:34.150Z,2.50
2022-09-02T02:44:01.407Z,2.95
2022-09-02T02:46:31.082Z,2.63
2022-09-02T02:49:01.561Z,2.85
2022-09-02T02:51:28.713Z,2.70
2022-09-02T02:53:58.894Z,2.80
2022-09-02T02:56:26.268Z,2.38
2022-09-02T02:58:53.410Z,2.70
2022-09-02T03:01:20.621Z,2.63
2022-09-02T03:03:47.927Z,2.90
2022-09-02T03:06:15.569Z,2.60
2022-09-02T03:08:48.936Z,2.45
2022-09-02T03:11:18.302Z,2.65
2022-09-02T03:13:45.447Z,3.00
2022-09-02T03:16:12.710Z,3.10
2022-09-02T03:18:39.917Z,2.90
2022-09-02T03:21:08.225Z,2.85
2022-09-02T03:23:35.527Z,3.15
2022-09-02T03:26:02.673Z,2.70
2022-09-02T03:28:29.845Z,2.85
2022-09-02T03:30:57.135Z,2.80
2022-09-02T03:33:24.360Z,3.00
2022-09-02T03:35:51.559Z,3.05
2022-09-02T03:38:18.973Z,2.90
2022-09-02T03:40:46.249Z,2.70
2022-09-02T03:43:13.665Z,3.13
2022-09-02T03:45:41.939Z,3.08
2022-09-02T03:48:13.296Z,3.05
2022-09-02T03:50:41.614Z,3.00
2022-09-02T03:53:09.598Z,3.28
2022-09-02T03:55:45.546Z,2.95
2022-09-02T03:58:13.578Z,2.97
2022-09-02T04:00:41.513Z,3.20
2022-09-02T04:03:08.825Z,3.40
2022-09-02T04:05:36.292Z,3.15
2022-09-02T04:08:03.597Z,3.10
2022-09-02T04:10:30.858Z,3.22
2022-09-02T04:12:58.125Z,3.20
2022-09-02T04:15:25.815Z,3.35
2022-09-02T04:17:52.978Z,3.85
2022-09-02T04:20:20.167Z,3.47
2022-09-02T04:22:47.310Z,3.05
2022-09-02T04:25:14.546Z,3.33
2022-09-02T04:27:41.671Z,3.58
2022-09-02T04:30:09.833Z,3.38
2022-09-02T04:32:40.679Z,3.28
2022-09-02T04:35:08.297Z,3.20
2022-09-02T04:37:35.568Z,3.50
2022-09-02T04:40:02.909Z,3.58
2022-09-02T04:42:30.044Z,3.20
2022-09-02T04:44:57.977Z,3.20
2022-09-02T04:47:26.631Z,3.88
2022-09-02T04:49:54.298Z,3.67
2022-09-02T04:52:21.495Z,3.78
2022-09-02T04:54:49.215Z,3.40
2022-09-02T04:57:16.702Z,3.80
2022-09-02T04:59:43.878Z,3.47
2022-09-02T05:02:12.045Z,3.10
2022-09-02T05:04:39.431Z,3.10
2022-09-02T05:07:06.642Z,3.20
2022-09-02T05:09:34.017Z,3.28
2022-09-02T05:12:04.162Z,3.13
2022-09-02T05:14:31.964Z,3.28
2022-09-02T05:17:05.109Z,2.97
2022-09-02T05:19:34.225Z,3.05
2022-09-02T05:22:01.861Z,2.72
2022-09-02T05:24:29.610Z,2.50
2022-09-02T05:26:56.859Z,2.90
2022-09-02T05:29:24.226Z,2.70
2022-09-02T05:31:51.540Z,2.58
2022-09-02T05:34:18.802Z,2.67
2022-09-02T05:36:46.122Z,2.40
2022-09-02T05:39:13.289Z,2.78
2022-09-02T05:41:40.427Z,3.22
2022-09-02T05:44:08.002Z,2.88
2022-09-02T05:46:35.753Z,2.90
2022-09-02T05:49:17.997Z,2.65
2022-09-02T05:51:50.174Z,2.58
2022-09-02T05:54:22.043Z,2.63
2022-09-02T05:56:51.662Z,2.60
2022-09-02T05:59:20.914Z,2.80
2022-09-02T06:01:48.921Z,2.35
2022-09-02T06:04:16.345Z,2.67
2022-09-02T06:06:43.709Z,2.55
2022-09-02T06:09:12.353Z,2.05
2022-09-02T06:11:40.535Z,2.13
2022-09-02T06:14:08.448Z,2.10
2022-09-02T06:16:36.180Z,2.50
2022-09-02T06:19:06.118Z,2.35
2022-09-02T06:21:34.279Z,2.20
2022-09-02T06:24:01.519Z,2.10
2022-09-02T06:26:28.723Z,2.10
2022-09-02T06:28:55.943Z,2.58
2022-09-02T06:31:23.552Z,2.50
2022-09-02T06:33:52.942Z,2.22
2022-09-02T06:36:20.726Z,2.25
2022-09-02T06:38:49.797Z,2.15
2022-09-02T06:41:18.807Z,2.33
2022-09-02T06:43:46.740Z,2.00
2022-09-02T06:46:21.664Z,1.85
2022-09-02T06:48:50.133Z,1.92
2022-09-02T06:51:18.270Z,1.90
2022-09-02T06:53:45.414Z,2.30
2022-09-02T06:56:12.612Z,2.10
2022-09-02T06:58:39.854Z,2.20
2022-09-02T07:01:07.630Z,2.00
2022-09-02T07:03:54.342Z,1.80
2022-09-02T07:06:22.750Z,1.83
2022-09-02T07:08:49.909Z,1.75
2022-09-02T07:11:18.987Z,1.80
2022-09-02T07:13:46.238Z,2.05
2022-09-02T07:16:15.657Z,1.95
2022-09-02T07:18:49.899Z,2.17
2022-09-02T07:21:17.051Z,2.28
2022-09-02T07:23:44.225Z,2.00
2022-09-02T07:26:14.970Z,2.20
2022-09-02T07:28:43.136Z,2.05
2022-09-02T07:31:14.139Z,1.83
2022-09-02T07:33:41.839Z,1.67
2022-09-02T07:36:12.530Z,1.90
2022-09-02T07:38:40.437Z,2.28
2022-09-02T07:41:07.654Z,2.00
2022-09-02T07:43:35.453Z,2.15
2022-09-02T07:46:02.850Z,3.05
2022-09-02T07:48:31.145Z,2.40
2022-09-02T07:50:58.760Z,1.80
2022-09-02T07:53:26.621Z,1.98
2022-09-02T07:55:54.030Z,2.00
2022-09-02T07:58:22.527Z,1.90
2022-09-02T08:00:50.523Z,1.80
2022-09-02T08:03:17.760Z,1.60
2022-09-02T08:05:47.069Z,1.55
2022-09-02T08:08:15.289Z,1.90
2022-09-02T08:10:42.918Z,1.90
2022-09-02T08:13:11.044Z,1.98
2022-09-02T08:15:38.873Z,1.80
2022-09-02T08:18:07.123Z,1.80
2022-09-02T08:20:35.736Z,1.75
2022-09-02T08:23:11.676Z,1.30
2022-09-02T08:25:45.875Z,1.70
2022-09-02T08:28:13.188Z,1.83
2022-09-02T08:30:40.419Z,1.52
2022-09-02T08:33:07.605Z,1.95
2022-09-02T08:35:35.036Z,1.40
2022-09-02T08:38:02.458Z,1.30
2022-09-02T08:40:34.321Z,1.40
2022-09-02T08:43:01.854Z,1.30
2022-09-02T08:45:39.297Z,1.60
2022-09-02T08:48:11.352Z,1.20
2022-09-02T08:50:40.705Z,1.13
2022-09-02T08:53:15.489Z,1.38
2022-09-02T08:56:01.976Z,1.45
2022-09-02T08:58:30.358Z,1.48
2022-09-02T09:01:06.464Z,1.30
2022-09-02T09:03:45.598Z,1.52
2022-09-02T09:06:24.280Z,1.25
2022-09-02T09:09:01.476Z,1.88
2022-09-02T09:11:31.654Z,1.10
2022-09-02T09:14:17.253Z,1.08
2022-09-02T09:16:54.684Z,0.90
2022-09-02T09:20:00.527Z,1.60
2022-09-02T09:22:38.807Z,1.20
2022-09-02T09:25:16.207Z,1.25
2022-09-02T09:27:46.072Z,1.15
2022-09-02T09:30:15.441Z,1.05
2022-09-02T09:32:54.817Z,1.15
2022-09-02T09:35:22.862Z,1.05
2022-09-02T09:37:51.125Z,1.30
2022-09-02T09:40:18.822Z,0.82
2022-09-02T09:42:49.708Z,1.13
2022-09-02T09:45:22.052Z,0.95
2022-09-02T09:48:07.934Z,1.33
2022-09-02T09:50:35.078Z,1.38
2022-09-02T09:53:32.226Z,1.00
2022-09-02T09:56:06.884Z,0.82
2022-09-02T09:58:37.064Z,1.00
2022-09-02T10:01:14.095Z,1.23
2022-09-02T10:03:49.041Z,1.00
2022-09-02T10:06:39.374Z,1.30
2022-09-02T10:09:16.586Z,1.00
2022-09-02T10:11:55.781Z,1.02
2022-09-02T10:14:25.506Z,1.00
2022-09-02T10:16:56.290Z,0.88
2022-09-02T10:19:30.566Z,1.10
2022-09-02T10:22:04.123Z,0.95
2022-09-02T10:24:31.848Z,1.30
2022-09-02T10:27:00.365Z,1.10
2022-09-02T10:29:39.673Z,1.17
2022-09-02T10:32:09.862Z,0.90
2022-09-02T10:34:48.990Z,1.10
2022-09-02T10:37:16.070Z,0.90
2022-09-02T10:40:01.940Z,1.02
2022-09-02T10:42:34.809Z,0.98
2022-09-02T10:45:24.321Z,1.10
2022-09-02T10:47:54.405Z,0.80
2022-09-02T10:50:42.647Z,1.15
2022-09-02T10:53:24.084Z,1.35
2022-09-02T10:55:59.861Z,1.10
2022-09-02T10:58:29.999Z,0.90
2022-09-02T11:00:58.088Z,0.73
2022-09-02T11:03:30.185Z,0.80
2022-09-02T11:05:57.367Z,1.20
2022-09-02T11:08:31.477Z,1.00
2022-09-02T11:11:11.530Z,0.90
2022-09-02T11:13:38.791Z,0.90
2022-09-02T11:16:32.190Z,1.05
2022-09-02T11:19:02.682Z,0.88
2022-09-02T11:21:48.954Z,1.08
2022-09-02T11:24:22.686Z,0.95
2022-09-02T11:27:08.726Z,1.02
2022-09-02T11:29:51.980Z,0.77
2022-09-02T11:32:22.622Z,1.15
2022-09-02T11:34:52.810Z,1.13
2022-09-02T11:37:26.155Z,0.90
2022-09-02T11:40:11.474Z,1.00
2022-09-02T11:42:39.097Z,0.90
2022-09-02T11:45:17.845Z,1.20
2022-09-02T11:47:46.401Z,0.85
2022-09-02T11:50:39.637Z,1.10
2022-09-02T11:53:20.567Z,1.10
2022-09-02T11:55:50.777Z,1.08
2022-09-02T11:58:36.658Z,1.05
2022-09-02T12:01:16.124Z,1.00
2022-09-02T12:04:15.898Z,1.00
2022-09-02T12:06:32.367Z,1.10
2022-09-02T12:09:03.513Z,1.10
2022-09-02T12:11:38.303Z,1.10
2022-09-02T12:14:08.078Z,1.20
2022-09-02T12:16:42.457Z,0.85
2022-09-02T12:19:10.807Z,1.40
2022-09-02T12:21:58.165Z,1.10
2022-09-02T12:24:25.430Z,0.90
2022-09-02T12:26:53.525Z,0.93
2022-09-02T12:29:21.945Z,0.98
2022-09-02T12:31:50.421Z,1.25
2022-09-02T12:34:20.632Z,0.90
2022-09-02T12:36:47.809Z,1.00
2022-09-02T12:39:32.862Z,1.00
2022-09-02T12:42:12.667Z,0.90
2022-09-02T12:44:45.567Z,1.17
2022-09-02T12:47:32.974Z,1.10
2022-09-02T12:50:05.182Z,1.00
2022-09-02T12:52:35.643Z,1.13
2022-09-02T12:55:11.501Z,1.08
2022-09-02T12:57:39.582Z,1.20
2022-09-02T13:00:07.052Z,1.15
2022-09-02T13:02:42.270Z,0.95
2022-09-02T13:05:15.845Z,1.30
2022-09-02T13:07:49.002Z,1.02
2022-09-02T13:10:34.615Z,1.27
2022-09-02T13:13:04.753Z,1.30
2022-09-02T13:15:31.934Z,1.00
2022-09-02T13:18:33.245Z,1.20
2022-09-02T13:21:00.355Z,0.90
2022-09-02T13:23:49.814Z,1.00
2022-09-02T13:26:45.533Z,1.00
2022-09-02T13:31:37.361Z,1.00
2022-09-02T13:34:08.188Z,1.20
2022-09-02T13:36:36.756Z,1.35
2022-09-02T13:39:25.633Z,1.10
2022-09-02T13:41:53.290Z,1.00
2022-09-02T13:44:28.943Z,1.20
2022-09-02T13:47:13.352Z,1.10
2022-09-02T13:49:46.267Z,1.15
2022-09-02T13:52:17.995Z,1.10
2022-09-02T13:57:14.406Z,1.20
2022-09-02T13:59:47.961Z,1.30
2022-09-02T14:02:30.596Z,1.30
2022-09-02T14:05:06.644Z,1.27
2022-09-02T14:07:38.594Z,1.30
2022-09-02T14:10:10.615Z,1.23
2022-09-02T14:12:38.896Z,1.48
2022-09-02T14:15:09.949Z,1.20
2022-09-02T14:17:37.132Z,1.30
2022-09-02T14:20:18.726Z,0.98
2022-09-02T14:22:53.103Z,1.20
2022-09-02T14:25:24.179Z,1.05
2022-09-02T14:27:55.357Z,1.20
2022-09-02T14:30:41.686Z,1.20
2022-09-02T14:33:18.066Z,1.00
2022-09-02T14:36:08.373Z,1.17
2022-09-02T14:38:47.558Z,1.30
2022-09-02T14:41:17.537Z,1.20
2022-09-02T14:43:48.813Z,1.08
2022-09-02T14:46:36.397Z,1.55
2022-09-02T14:49:05.541Z,1.30
2022-09-02T14:51:58.887Z,1.23
2022-09-02T14:54:35.295Z,1.20
2022-09-02T14:57:02.486Z,1.30
2022-09-02T14:59:29.610Z,1.23
2022-09-02T15:01:57.707Z,1.30
2022-09-02T15:04:25.065Z,1.23
2022-09-02T15:06:52.416Z,1.05
2022-09-02T15:09:19.666Z,1.00
2022-09-02T15:11:49.883Z,1.27
2022-09-02T15:14:17.080Z,1.30
2022-09-02T15:16:44.245Z,1.13
2022-09-02T15:19:11.410Z,1.10
2022-09-02T15:21:38.585Z,1.05
2022-09-02T15:24:05.931Z,1.10
2022-09-02T15:26:33.042Z,1.10
2022-09-02T15:29:00.169Z,1.10
2022-09-02T15:31:27.344Z,1.33
2022-09-02T15:33:54.546Z,1.20
2022-09-02T15:36:21.725Z,1.10
2022-09-02T15:38:49.070Z,1.20
2022-09-02T15:41:17.783Z,1.60
2022-09-02T15:43:45.950Z,1.27
2022-09-02T15:46:19.436Z,1.10
2022-09-02T15:48:46.785Z,1.10
2022-09-02T15:51:15.306Z,0.82
2022-09-02T15:53:42.701Z,1.00
2022-09-02T15:56:17.171Z,1.20
2022-09-02T15:58:44.354Z,1.27
2022-09-02T16:01:11.702Z,1.30
2022-09-02T16:03:39.259Z,1.10
2022-09-02T16:06:07.978Z,0.90
2022-09-02T16:08:35.548Z,1.30
2022-09-02T16:11:07.298Z,1.40
2022-09-02T16:13:35.038Z,1.00
2022-09-02T16:16:03.142Z,1.30
2022-09-02T16:18:30.286Z,1.27
2022-09-02T16:20:57.495Z,1.40
2022-09-02T16:23:24.785Z,1.77
2022-09-02T16:26:07.324Z,1.60
2022-09-02T16:28:38.186Z,1.08
2022-09-02T16:31:06.175Z,1.65
2022-09-02T16:33:34.020Z,1.00
2022-09-02T16:36:01.524Z,1.42
2022-09-02T16:38:28.709Z,1.20
2022-09-02T16:40:57.129Z,1.30
2022-09-02T16:43:24.973Z,1.15
2022-09-02T16:45:52.918Z,1.20
2022-09-02T16:48:25.560Z,1.02
2022-09-02T16:50:53.013Z,2.15
2022-09-02T16:53:20.178Z,1.20
2022-09-02T16:55:47.523Z,1.77
2022-09-02T16:58:14.794Z,4.40
2022-09-02T17:00:42.234Z,6.28
2022-09-02T17:03:12.651Z,5.25
2022-09-02T17:05:40.042Z,2.90
2022-09-02T17:08:07.393Z,2.60
2022-09-02T17:10:35.563Z,2.35
2022-09-02T17:13:02.778Z,1.98
2022-09-02T17:15:31.244Z,1.33
2022-09-02T17:17:58.493Z,1.20
2022-09-02T17:20:25.744Z,1.60
2022-09-02T17:22:53.076Z,1.55
2022-09-02T17:25:20.261Z,1.20
2022-09-02T17:27:47.615Z,1.27
2022-09-02T17:30:14.868Z,1.80
2022-09-02T17:32:42.425Z,1.70
2022-09-02T17:35:10.670Z,1.30
2022-09-02T17:37:38.279Z,1.40
2022-09-02T17:40:06.454Z,1.20
2022-09-02T17:42:34.476Z,1.55
2022-09-02T17:45:01.630Z,3.08
2022-09-02T17:47:31.628Z,2.25
2022-09-02T17:49:59.208Z,1.98
2022-09-02T17:52:26.819Z,1.80
2022-09-02T17:54:54.518Z,2.05
2022-09-02T17:57:23.684Z,1.95
2022-09-02T18:00:03.329Z,1.58
2022-09-02T18:02:33.591Z,1.70
2022-09-02T18:05:17.972Z,1.73
2022-09-02T18:08:03.023Z,1.67
2022-09-02T18:10:37.526Z,1.40
2022-09-02T18:13:06.699Z,1.88
2022-09-02T18:15:37.873Z,1.65
2022-09-02T18:18:05.831Z,1.58
2022-09-02T18:20:43.784Z,2.03
2022-09-02T18:23:13.706Z,1.85
2022-09-02T18:25:45.857Z,1.90
2022-09-02T18:28:31.456Z,1.83
2022-09-02T18:31:08.877Z,1.90
2022-09-02T18:33:54.531Z,1.45
2022-09-02T18:36:27.689Z,1.40
2022-09-02T18:38:58.416Z,1.50
2022-09-02T18:41:44.334Z,1.60
2022-09-02T18:44:30.894Z,1.73
2022-09-02T18:47:01.792Z,1.98
2022-09-02T18:49:32.045Z,2.00
2022-09-02T18:52:00.560Z,1.67
2022-09-02T18:54:29.570Z,1.42
2022-09-02T18:56:58.908Z,2.17
2022-09-02T18:59:35.365Z,1.20
2022-09-02T19:02:07.025Z,1.30
2022-09-02T19:04:35.602Z,1.67
2022-09-02T19:07:21.959Z,1.70
2022-09-02T19:09:49.103Z,1.63
2022-09-02T19:12:16.301Z,1.63
2022-09-02T19:14:43.655Z,1.65
2022-09-02T19:17:12.530Z,1.58
2022-09-02T19:19:39.677Z,1.30
2022-09-02T19:22:09.376Z,1.42
2022-09-02T19:24:37.295Z,2.38
2022-09-02T19:27:06.666Z,1.38
2022-09-02T19:29:35.453Z,1.70
2022-09-02T19:32:02.860Z,1.50
2022-09-02T19:34:33.886Z,1.30
2022-09-02T19:37:01.372Z,1.65
2022-09-02T19:39:28.583Z,1.42
2022-09-02T19:41:55.743Z,1.70
2022-09-02T19:44:22.897Z,1.80
2022-09-02T19:47:49.880Z,1.48
2022-09-02T19:49:37.130Z,1.30
2022-09-02T19:52:04.365Z,1.40
2022-09-02T19:54:31.949Z,2.05
2022-09-02T19:56:59.289Z,1.60
2022-09-02T19:59:26.800Z,1.55
2022-09-02T20:01:54.077Z,1.83
2022-09-02T20:04:21.769Z,1.50
2022-09-02T20:06:48.946Z,1.33
2022-09-02T20:09:16.138Z,1.20
2022-09-02T20:11:44.248Z,1.33
2022-09-02T20:14:11.426Z,1.42
2022-09-02T20:16:38.672Z,1.17
2022-09-02T20:19:05.978Z,1.35
2022-09-02T20:21:36.859Z,1.23
2022-09-02T20:24:08.301Z,1.45
2022-09-02T20:26:49.777Z,1.27
2022-09-02T20:29:34.119Z,1.40
2022-09-02T20:32:19.753Z,1.58
2022-09-02T20:34:46.863Z,1.20
2022-09-02T20:37:32.447Z,1.40
2022-09-02T20:40:11.239Z,1.30
2022-09-02T20:42:44.834Z,1.40
2022-09-02T20:45:12.056Z,1.20
2022-09-02T20:47:39.257Z,1.42
2022-09-02T20:50:09.441Z,1.45
2022-09-02T20:52:39.967Z,1.20
2022-09-02T20:55:13.470Z,1.40
2022-09-02T20:58:12.496Z,1.10
2022-09-02T21:00:42.797Z,1.20
2022-09-02T21:03:11.378Z,1.40
2022-09-02T21:05:44.298Z,1.40
2022-09-02T21:08:24.664Z,1.10
2022-09-02T21:10:59.893Z,1.02
2022-09-02T21:13:45.710Z,1.20
2022-09-02T21:16:19.813Z,1.52
2022-09-02T21:19:06.049Z,1.42
2022-09-02T21:21:38.932Z,1.35
2022-09-02T21:24:09.211Z,1.45
2022-09-02T21:26:39.750Z,1.40
2022-09-02T21:29:12.847Z,1.60
2022-09-02T21:31:46.589Z,1.20
2022-09-02T21:34:33.974Z,1.10
2022-09-02T21:37:03.263Z,1.30
2022-09-02T21:39:32.986Z,1.30
2022-09-02T21:42:03.998Z,1.40
2022-09-02T21:44:49.486Z,1.38
2022-09-02T21:47:20.433Z,1.30
2022-09-02T21:49:54.501Z,1.20
2022-09-02T21:52:39.747Z,1.27
2022-09-02T21:55:06.868Z,1.30
2022-09-02T21:57:41.280Z,1.20
2022-09-02T22:00:09.577Z,1.50
2022-09-02T22:02:36.925Z,1.63
2022-09-02T22:05:08.362Z,1.48
2022-09-02T22:07:44.324Z,1.40
2022-09-02T22:10:11.483Z,1.40
2022-09-02T22:12:41.051Z,1.33
2022-09-02T22:15:08.383Z,1.38
2022-09-02T22:17:35.466Z,1.38
2022-09-02T22:20:05.370Z,1.40
2022-09-02T22:22:35.448Z,1.30
2022-09-02T22:25:03.393Z,1.08
2022-09-02T22:27:34.194Z,1.35
2022-09-02T22:30:13.103Z,1.20
2022-09-02T22:32:41.370Z,1.23
2022-09-02T22:35:23.016Z,1.23
2022-09-02T22:37:55.562Z,1.30
2022-09-02T22:40:24.805Z,1.30
2022-09-02T22:42:54.071Z,1.50
2022-09-02T22:45:48.023Z,1.15
2022-09-02T22:48:57.211Z,1.25
2022-09-02T22:51:47.705Z,1.20
2022-09-02T22:54:14.881Z,1.50
2022-09-02T22:56:47.893Z,1.10
2022-09-02T22:59:28.374Z,1.50
2022-09-02T23:01:58.376Z,1.30
2022-09-02T23:04:31.577Z,1.85
2022-09-02T23:07:05.525Z,1.40
2022-09-02T23:09:33.610Z,1.20
2022-09-02T23:12:18.766Z,1.23
2022-09-02T23:14:59.856Z,1.10
2022-09-02T23:17:34.763Z,1.45
2022-09-02T23:20:20.501Z,1.40
2022-09-02T23:22:51.478Z,1.33
2022-09-02T23:25:26.144Z,1.20
2022-09-02T23:27:57.262Z,1.20
2022-09-02T23:30:24.370Z,1.30
2022-09-02T23:32:55.529Z,1.27
2022-09-02T23:35:24.172Z,1.25
2022-09-02T23:37:54.070Z,1.27
2022-09-02T23:40:24.074Z,1.23
2022-09-02T23:42:51.277Z,1.45
2022-09-02T23:45:27.574Z,1.13
2022-09-02T23:48:13.369Z,1.40
2022-09-02T23:50:49.093Z,1.30
2022-09-02T23:53:22.318Z,1.75
2022-09-02T23:55:52.384Z,1.38
2022-09-02T23:58:19.556Z,1.30
